EGPH/EDI METAR and TAF weather

Enter ICAO airport designator
Station Type Date Time Source
EGPH METAR 2020/03/31 22:20 UTC NOAA

EGPH 312220Z 29005KT 250V340 CAVOK 08/03 Q1029


Station Type Date Time Source
EGPH Decoded METAR 2020/03/31 22:20 UTC NOAA

Edinburgh Airport, United Kingdom (EGPH) 55-57N 003-21W 0M
Mar 31, 2020 - 06:20 PM EDT / 2020.03.31 2220 UTC
Wind: from the WNW (290 degrees) at 6 MPH (5 KT) (direction variable):0
Visibility: greater than 7 mile(s):0
Temperature: 46 F (8 C)
Dew Point: 37 F (3 C)
Relative Humidity: 70%
Pressure (altimeter): 30.39 in. Hg (1029 hPa)
ob: EGPH 312220Z 29005KT 250V340 CAVOK 08/03 Q1029
cycle: 22

Station Type Date Time Source
EGPH TAF 2020/03/31 18:06 UTC NOAA

TAF EGPH 311558Z 3118/0118 27004KT 9999 FEW020 BKN042
BECMG 0113/0116 26015G25KT PROB30
TEMPO 0116/0118 -RA BKN014

Example: see airport list